sensor_id;sensor_type;location;lat;lon;timestamp;P1;durP1;ratioP1;P2;durP2;ratioP2
60454;SDS011;54989;53.398;6.564;2022-09-03T00:02:39;1.45;;;1.00;;
60454;SDS011;54989;53.398;6.564;2022-09-03T00:08:01;0.90;;;0.90;;
60454;SDS011;54989;53.398;6.564;2022-09-03T00:13:37;0.90;;;0.90;;
60454;SDS011;54989;53.398;6.564;2022-09-03T00:16:11;1.40;;;0.90;;
60454;SDS011;54989;53.398;6.564;2022-09-03T00:18:42;1.00;;;1.00;;
60454;SDS011;54989;53.398;6.564;2022-09-03T00:21:15;1.02;;;1.02;;
60454;SDS011;54989;53.398;6.564;2022-09-03T00:23:48;1.10;;;1.00;;
60454;SDS011;54989;53.398;6.564;2022-09-03T00:26:19;0.90;;;0.90;;
60454;SDS011;54989;53.398;6.564;2022-09-03T00:28:55;0.90;;;0.90;;
60454;SDS011;54989;53.398;6.564;2022-09-03T00:31:36;1.00;;;1.00;;
60454;SDS011;54989;53.398;6.564;2022-09-03T00:37:00;1.10;;;1.00;;
60454;SDS011;54989;53.398;6.564;2022-09-03T00:39:29;1.13;;;0.85;;
60454;SDS011;54989;53.398;6.564;2022-09-03T00:42:00;0.75;;;0.75;;
60454;SDS011;54989;53.398;6.564;2022-09-03T00:50:52;0.88;;;0.80;;
60454;SDS011;54989;53.398;6.564;2022-09-03T00:56:29;1.02;;;0.93;;
60454;SDS011;54989;53.398;6.564;2022-09-03T00:59:53;0.82;;;0.82;;
60454;SDS011;54989;53.398;6.564;2022-09-03T01:02:11;1.65;;;0.80;;
60454;SDS011;54989;53.398;6.564;2022-09-03T01:04:55;0.80;;;0.80;;
60454;SDS011;54989;53.398;6.564;2022-09-03T01:24:52;1.00;;;1.00;;
60454;SDS011;54989;53.398;6.564;2022-09-03T01:27:31;0.73;;;0.73;;
60454;SDS011;54989;53.398;6.564;2022-09-03T01:30:10;1.02;;;0.90;;
60454;SDS011;54989;53.398;6.564;2022-09-03T01:35:49;1.38;;;0.80;;
60454;SDS011;54989;53.398;6.564;2022-09-03T01:50:09;0.93;;;0.93;;
60454;SDS011;54989;53.398;6.564;2022-09-03T01:52:58;0.80;;;0.80;;
60454;SDS011;54989;53.398;6.564;2022-09-03T01:58:13;0.98;;;0.98;;
60454;SDS011;54989;53.398;6.564;2022-09-03T02:00:42;0.73;;;0.73;;
60454;SDS011;54989;53.398;6.564;2022-09-03T02:03:12;0.90;;;0.90;;
60454;SDS011;54989;53.398;6.564;2022-09-03T02:05:40;0.90;;;0.70;;
60454;SDS011;54989;53.398;6.564;2022-09-03T02:08:09;0.93;;;0.80;;
60454;SDS011;54989;53.398;6.564;2022-09-03T02:10:44;0.73;;;0.73;;
60454;SDS011;54989;53.398;6.564;2022-09-03T02:13:16;0.80;;;0.80;;
60454;SDS011;54989;53.398;6.564;2022-09-03T02:15:46;0.95;;;0.93;;
60454;SDS011;54989;53.398;6.564;2022-09-03T02:18:16;1.13;;;1.00;;
60454;SDS011;54989;53.398;6.564;2022-09-03T02:20:49;1.15;;;1.05;;
60454;SDS011;54989;53.398;6.564;2022-09-03T02:23:20;1.10;;;1.02;;
60454;SDS011;54989;53.398;6.564;2022-09-03T02:25:55;1.15;;;1.05;;
60454;SDS011;54989;53.398;6.564;2022-09-03T02:28:27;0.73;;;0.68;;
60454;SDS011;54989;53.398;6.564;2022-09-03T02:30:57;1.10;;;0.98;;
60454;SDS011;54989;53.398;6.564;2022-09-03T02:33:30;0.80;;;0.80;;
60454;SDS011;54989;53.398;6.564;2022-09-03T02:36:03;0.98;;;0.98;;
60454;SDS011;54989;53.398;6.564;2022-09-03T02:38:32;1.00;;;1.00;;
60454;SDS011;54989;53.398;6.564;2022-09-03T02:41:01;0.88;;;0.88;;
60454;SDS011;54989;53.398;6.564;2022-09-03T02:43:39;1.20;;;0.85;;
60454;SDS011;54989;53.398;6.564;2022-09-03T02:46:16;0.88;;;0.88;;
60454;SDS011;54989;53.398;6.564;2022-09-03T02:48:47;1.90;;;1.00;;
60454;SDS011;54989;53.398;6.564;2022-09-03T02:51:14;1.20;;;1.05;;
60454;SDS011;54989;53.398;6.564;2022-09-03T02:53:43;0.70;;;0.70;;
60454;SDS011;54989;53.398;6.564;2022-09-03T02:56:10;0.88;;;0.88;;
60454;SDS011;54989;53.398;6.564;2022-09-03T02:58:38;1.00;;;1.00;;
60454;SDS011;54989;53.398;6.564;2022-09-03T03:01:06;0.85;;;0.85;;
60454;SDS011;54989;53.398;6.564;2022-09-03T03:03:34;1.00;;;0.90;;
60454;SDS011;54989;53.398;6.564;2022-09-03T03:06:03;0.82;;;0.82;;
60454;SDS011;54989;53.398;6.564;2022-09-03T03:11:00;0.70;;;0.70;;
60454;SDS011;54989;53.398;6.564;2022-09-03T03:13:29;0.70;;;0.70;;
60454;SDS011;54989;53.398;6.564;2022-09-03T03:16:01;1.30;;;1.20;;
60454;SDS011;54989;53.398;6.564;2022-09-03T03:18:32;0.93;;;0.93;;
60454;SDS011;54989;53.398;6.564;2022-09-03T03:21:04;1.20;;;1.10;;
60454;SDS011;54989;53.398;6.564;2022-09-03T03:23:36;0.80;;;0.80;;
60454;SDS011;54989;53.398;6.564;2022-09-03T03:26:06;0.80;;;0.80;;
60454;SDS011;54989;53.398;6.564;2022-09-03T03:28:35;2.22;;;0.90;;
60454;SDS011;54989;53.398;6.564;2022-09-03T03:33:35;0.80;;;0.80;;
60454;SDS011;54989;53.398;6.564;2022-09-03T03:36:04;0.80;;;0.80;;
60454;SDS011;54989;53.398;6.564;2022-09-03T03:38:33;0.60;;;0.60;;
60454;SDS011;54989;53.398;6.564;2022-09-03T03:43:39;1.08;;;0.95;;
60454;SDS011;54989;53.398;6.564;2022-09-03T03:46:06;0.80;;;0.80;;
60454;SDS011;54989;53.398;6.564;2022-09-03T03:48:35;0.80;;;0.80;;
60454;SDS011;54989;53.398;6.564;2022-09-03T03:51:05;1.02;;;0.90;;
60454;SDS011;54989;53.398;6.564;2022-09-03T03:53:34;0.90;;;0.90;;
60454;SDS011;54989;53.398;6.564;2022-09-03T03:56:08;0.90;;;0.90;;
60454;SDS011;54989;53.398;6.564;2022-09-03T03:58:39;0.90;;;0.90;;
60454;SDS011;54989;53.398;6.564;2022-09-03T04:01:16;0.90;;;0.90;;
60454;SDS011;54989;53.398;6.564;2022-09-03T04:03:45;0.82;;;0.82;;
60454;SDS011;54989;53.398;6.564;2022-09-03T04:06:14;0.82;;;0.82;;
60454;SDS011;54989;53.398;6.564;2022-09-03T04:08:44;1.25;;;0.85;;
60454;SDS011;54989;53.398;6.564;2022-09-03T04:11:16;1.08;;;1.08;;
60454;SDS011;54989;53.398;6.564;2022-09-03T04:13:48;0.80;;;0.80;;
60454;SDS011;54989;53.398;6.564;2022-09-03T04:16:18;0.95;;;0.93;;
60454;SDS011;54989;53.398;6.564;2022-09-03T04:18:47;0.98;;;0.98;;
60454;SDS011;54989;53.398;6.564;2022-09-03T04:21:16;0.80;;;0.80;;
60454;SDS011;54989;53.398;6.564;2022-09-03T04:23:46;0.70;;;0.70;;
60454;SDS011;54989;53.398;6.564;2022-09-03T04:26:16;1.10;;;1.00;;
60454;SDS011;54989;53.398;6.564;2022-09-03T04:28:44;1.85;;;1.13;;
60454;SDS011;54989;53.398;6.564;2022-09-03T04:31:14;2.25;;;1.08;;
60454;SDS011;54989;53.398;6.564;2022-09-03T04:33:43;1.20;;;1.10;;
60454;SDS011;54989;53.398;6.564;2022-09-03T04:36:12;1.10;;;1.10;;
60454;SDS011;54989;53.398;6.564;2022-09-03T04:38:45;1.08;;;1.00;;
60454;SDS011;54989;53.398;6.564;2022-09-03T04:41:17;1.08;;;0.98;;
60454;SDS011;54989;53.398;6.564;2022-09-03T04:46:17;1.20;;;1.10;;
60454;SDS011;54989;53.398;6.564;2022-09-03T04:48:47;0.77;;;0.77;;
60454;SDS011;54989;53.398;6.564;2022-09-03T04:51:19;1.10;;;1.00;;
60454;SDS011;54989;53.398;6.564;2022-09-03T04:53:52;1.50;;;1.20;;
60454;SDS011;54989;53.398;6.564;2022-09-03T04:56:25;1.13;;;1.10;;
60454;SDS011;54989;53.398;6.564;2022-09-03T04:58:56;1.08;;;0.98;;
60454;SDS011;54989;53.398;6.564;2022-09-03T05:01:28;1.00;;;0.90;;
60454;SDS011;54989;53.398;6.564;2022-09-03T05:03:57;1.00;;;0.90;;
60454;SDS011;54989;53.398;6.564;2022-09-03T05:06:25;1.08;;;1.00;;
60454;SDS011;54989;53.398;6.564;2022-09-03T05:08:54;1.15;;;1.05;;
60454;SDS011;54989;53.398;6.564;2022-09-03T05:11:23;1.23;;;1.13;;
60454;SDS011;54989;53.398;6.564;2022-09-03T05:13:52;1.52;;;1.10;;
60454;SDS011;54989;53.398;6.564;2022-09-03T05:16:21;1.10;;;1.00;;
60454;SDS011;54989;53.398;6.564;2022-09-03T05:18:54;1.65;;;1.25;;
60454;SDS011;54989;53.398;6.564;2022-09-03T05:21:22;1.13;;;1.10;;
60454;SDS011;54989;53.398;6.564;2022-09-03T05:23:50;1.23;;;1.05;;
60454;SDS011;54989;53.398;6.564;2022-09-03T05:26:25;1.23;;;1.10;;
60454;SDS011;54989;53.398;6.564;2022-09-03T05:28:59;1.17;;;1.10;;
60454;SDS011;54989;53.398;6.564;2022-09-03T05:31:28;0.90;;;0.90;;
60454;SDS011;54989;53.398;6.564;2022-09-03T05:33:59;1.25;;;1.20;;
60454;SDS011;54989;53.398;6.564;2022-09-03T05:38:58;1.10;;;1.00;;
60454;SDS011;54989;53.398;6.564;2022-09-03T05:41:25;1.10;;;1.00;;
60454;SDS011;54989;53.398;6.564;2022-09-03T05:43:55;0.90;;;0.90;;
60454;SDS011;54989;53.398;6.564;2022-09-03T05:46:26;1.45;;;1.10;;
60454;SDS011;54989;53.398;6.564;2022-09-03T05:48:58;2.15;;;1.23;;
60454;SDS011;54989;53.398;6.564;2022-09-03T05:51:28;1.38;;;1.00;;
60454;SDS011;54989;53.398;6.564;2022-09-03T05:53:57;1.05;;;1.00;;
60454;SDS011;54989;53.398;6.564;2022-09-03T05:56:26;1.20;;;1.13;;
60454;SDS011;54989;53.398;6.564;2022-09-03T05:58:58;1.13;;;1.02;;
60454;SDS011;54989;53.398;6.564;2022-09-03T06:01:29;1.23;;;1.15;;
60454;SDS011;54989;53.398;6.564;2022-09-03T06:06:36;1.25;;;1.15;;
60454;SDS011;54989;53.398;6.564;2022-09-03T06:09:06;1.13;;;1.10;;
60454;SDS011;54989;53.398;6.564;2022-09-03T06:14:08;0.90;;;0.90;;
60454;SDS011;54989;53.398;6.564;2022-09-03T06:16:39;1.38;;;1.27;;
60454;SDS011;54989;53.398;6.564;2022-09-03T06:19:08;0.90;;;0.90;;
60454;SDS011;54989;53.398;6.564;2022-09-03T06:21:37;1.10;;;1.10;;
60454;SDS011;54989;53.398;6.564;2022-09-03T06:24:10;1.15;;;1.15;;
60454;SDS011;54989;53.398;6.564;2022-09-03T06:26:40;1.67;;;0.95;;
60454;SDS011;54989;53.398;6.564;2022-09-03T06:29:09;1.02;;;1.02;;
60454;SDS011;54989;53.398;6.564;2022-09-03T06:31:37;1.27;;;1.17;;
60454;SDS011;54989;53.398;6.564;2022-09-03T06:34:05;0.95;;;0.95;;
60454;SDS011;54989;53.398;6.564;2022-09-03T06:36:34;1.13;;;1.10;;
60454;SDS011;54989;53.398;6.564;2022-09-03T06:39:01;1.95;;;1.17;;
60454;SDS011;54989;53.398;6.564;2022-09-03T06:41:30;1.10;;;1.10;;
60454;SDS011;54989;53.398;6.564;2022-09-03T06:44:00;1.95;;;1.15;;
60454;SDS011;54989;53.398;6.564;2022-09-03T06:46:33;0.90;;;0.90;;
60454;SDS011;54989;53.398;6.564;2022-09-03T06:49:02;1.42;;;1.20;;
60454;SDS011;54989;53.398;6.564;2022-09-03T06:51:30;0.95;;;0.90;;
60454;SDS011;54989;53.398;6.564;2022-09-03T06:54:00;1.60;;;1.20;;
60454;SDS011;54989;53.398;6.564;2022-09-03T06:56:32;1.20;;;1.10;;
60454;SDS011;54989;53.398;6.564;2022-09-03T06:59:10;1.83;;;1.15;;
60454;SDS011;54989;53.398;6.564;2022-09-03T07:01:39;1.20;;;1.10;;
60454;SDS011;54989;53.398;6.564;2022-09-03T07:04:10;1.13;;;1.13;;
60454;SDS011;54989;53.398;6.564;2022-09-03T07:06:39;1.98;;;1.25;;
60454;SDS011;54989;53.398;6.564;2022-09-03T07:09:09;1.27;;;1.10;;
60454;SDS011;54989;53.398;6.564;2022-09-03T07:11:37;1.25;;;1.15;;
60454;SDS011;54989;53.398;6.564;2022-09-03T07:14:13;2.35;;;1.20;;
60454;SDS011;54989;53.398;6.564;2022-09-03T07:16:42;1.20;;;1.05;;
60454;SDS011;54989;53.398;6.564;2022-09-03T07:19:12;1.40;;;1.30;;
60454;SDS011;54989;53.398;6.564;2022-09-03T07:21:40;1.25;;;1.13;;
60454;SDS011;54989;53.398;6.564;2022-09-03T07:24:15;1.40;;;1.13;;
60454;SDS011;54989;53.398;6.564;2022-09-03T07:26:43;1.08;;;1.00;;
60454;SDS011;54989;53.398;6.564;2022-09-03T07:29:14;1.33;;;1.23;;
60454;SDS011;54989;53.398;6.564;2022-09-03T07:31:47;1.85;;;1.00;;
60454;SDS011;54989;53.398;6.564;2022-09-03T07:34:18;1.67;;;1.38;;
60454;SDS011;54989;53.398;6.564;2022-09-03T07:36:47;2.47;;;1.00;;
60454;SDS011;54989;53.398;6.564;2022-09-03T07:39:17;1.73;;;1.10;;
60454;SDS011;54989;53.398;6.564;2022-09-03T07:41:45;1.20;;;1.10;;
60454;SDS011;54989;53.398;6.564;2022-09-03T07:44:14;1.08;;;1.05;;
60454;SDS011;54989;53.398;6.564;2022-09-03T07:46:45;0.90;;;0.90;;
60454;SDS011;54989;53.398;6.564;2022-09-03T07:49:15;1.08;;;1.08;;
60454;SDS011;54989;53.398;6.564;2022-09-03T07:51:43;1.30;;;1.08;;
60454;SDS011;54989;53.398;6.564;2022-09-03T07:54:12;1.38;;;1.27;;
60454;SDS011;54989;53.398;6.564;2022-09-03T07:56:39;1.60;;;1.10;;
60454;SDS011;54989;53.398;6.564;2022-09-03T07:59:07;1.00;;;1.00;;
60454;SDS011;54989;53.398;6.564;2022-09-03T08:01:37;1.27;;;1.17;;
60454;SDS011;54989;53.398;6.564;2022-09-03T08:04:07;1.40;;;1.13;;
60454;SDS011;54989;53.398;6.564;2022-09-03T08:06:36;1.58;;;1.00;;
60454;SDS011;54989;53.398;6.564;2022-09-03T08:09:05;1.63;;;1.10;;
60454;SDS011;54989;53.398;6.564;2022-09-03T08:11:37;1.60;;;1.25;;
60454;SDS011;54989;53.398;6.564;2022-09-03T08:14:07;3.25;;;1.20;;
60454;SDS011;54989;53.398;6.564;2022-09-03T08:16:37;2.22;;;1.20;;
60454;SDS011;54989;53.398;6.564;2022-09-03T08:21:35;1.40;;;1.20;;
60454;SDS011;54989;53.398;6.564;2022-09-03T08:24:03;1.98;;;1.30;;
60454;SDS011;54989;53.398;6.564;2022-09-03T08:26:31;1.20;;;1.10;;
60454;SDS011;54989;53.398;6.564;2022-09-03T08:31:31;2.47;;;1.17;;
60454;SDS011;54989;53.398;6.564;2022-09-03T08:34:00;2.75;;;1.17;;
60454;SDS011;54989;53.398;6.564;2022-09-03T08:36:33;2.55;;;1.23;;
60454;SDS011;54989;53.398;6.564;2022-09-03T08:39:05;1.27;;;1.13;;
60454;SDS011;54989;53.398;6.564;2022-09-03T08:47:18;1.05;;;0.95;;
60454;SDS011;54989;53.398;6.564;2022-09-03T08:52:25;1.17;;;1.15;;
60454;SDS011;54989;53.398;6.564;2022-09-03T08:58:05;2.83;;;1.10;;
60454;SDS011;54989;53.398;6.564;2022-09-03T09:03:28;1.73;;;1.20;;
60454;SDS011;54989;53.398;6.564;2022-09-03T09:06:25;0.77;;;0.77;;
60454;SDS011;54989;53.398;6.564;2022-09-03T09:23:03;4.57;;;1.70;;
60454;SDS011;54989;53.398;6.564;2022-09-03T09:25:32;1.30;;;1.20;;
60454;SDS011;54989;53.398;6.564;2022-09-03T09:28:12;1.35;;;1.00;;
60454;SDS011;54989;53.398;6.564;2022-09-03T09:30:53;1.50;;;1.20;;
60454;SDS011;54989;53.398;6.564;2022-09-03T09:33:22;1.30;;;1.20;;
60454;SDS011;54989;53.398;6.564;2022-09-03T09:35:51;1.58;;;1.15;;
60454;SDS011;54989;53.398;6.564;2022-09-03T09:38:37;1.50;;;1.38;;
60454;SDS011;54989;53.398;6.564;2022-09-03T09:41:12;2.17;;;1.40;;
60454;SDS011;54989;53.398;6.564;2022-09-03T09:43:58;2.75;;;1.50;;
60454;SDS011;54989;53.398;6.564;2022-09-03T09:46:31;3.28;;;1.70;;
60454;SDS011;54989;53.398;6.564;2022-09-03T09:49:06;3.55;;;1.70;;
60454;SDS011;54989;53.398;6.564;2022-09-03T09:54:41;10.80;;;2.20;;
60454;SDS011;54989;53.398;6.564;2022-09-03T09:57:21;7.95;;;2.10;;
60454;SDS011;54989;53.398;6.564;2022-09-03T10:02:52;7.57;;;1.90;;
60454;SDS011;54989;53.398;6.564;2022-09-03T10:07:57;4.30;;;1.70;;
60454;SDS011;54989;53.398;6.564;2022-09-03T10:10:27;4.60;;;1.58;;
60454;SDS011;54989;53.398;6.564;2022-09-03T10:13:11;4.35;;;1.60;;
60454;SDS011;54989;53.398;6.564;2022-09-03T10:15:44;4.80;;;1.58;;
60454;SDS011;54989;53.398;6.564;2022-09-03T10:21:38;2.97;;;1.38;;
60454;SDS011;54989;53.398;6.564;2022-09-03T10:24:40;1.70;;;1.13;;
60454;SDS011;54989;53.398;6.564;2022-09-03T10:27:17;2.25;;;1.35;;
60454;SDS011;54989;53.398;6.564;2022-09-03T10:29:46;1.77;;;1.30;;
60454;SDS011;54989;53.398;6.564;2022-09-03T10:35:30;3.05;;;1.25;;
60454;SDS011;54989;53.398;6.564;2022-09-03T10:46:34;1.67;;;1.20;;
60454;SDS011;54989;53.398;6.564;2022-09-03T10:52:02;1.00;;;1.00;;
60454;SDS011;54989;53.398;6.564;2022-09-03T10:57:30;1.00;;;0.93;;
60454;SDS011;54989;53.398;6.564;2022-09-03T11:00:09;2.83;;;1.08;;
60454;SDS011;54989;53.398;6.564;2022-09-03T11:05:40;1.48;;;1.10;;
60454;SDS011;54989;53.398;6.564;2022-09-03T11:08:33;1.30;;;1.10;;
60454;SDS011;54989;53.398;6.564;2022-09-03T11:11:14;1.80;;;0.93;;
60454;SDS011;54989;53.398;6.564;2022-09-03T11:16:41;1.05;;;1.00;;
60454;SDS011;54989;53.398;6.564;2022-09-03T11:19:13;1.77;;;1.02;;
60454;SDS011;54989;53.398;6.564;2022-09-03T11:21:44;1.75;;;0.90;;
60454;SDS011;54989;53.398;6.564;2022-09-03T11:24:24;2.70;;;0.95;;
60454;SDS011;54989;53.398;6.564;2022-09-03T11:29:31;1.75;;;1.10;;
60454;SDS011;54989;53.398;6.564;2022-09-03T11:32:17;1.10;;;1.00;;
60454;SDS011;54989;53.398;6.564;2022-09-03T11:34:50;1.77;;;1.00;;
60454;SDS011;54989;53.398;6.564;2022-09-03T11:37:21;2.65;;;1.20;;
60454;SDS011;54989;53.398;6.564;2022-09-03T11:42:28;2.40;;;1.00;;
60454;SDS011;54989;53.398;6.564;2022-09-03T11:45:21;1.10;;;0.90;;
60454;SDS011;54989;53.398;6.564;2022-09-03T11:48:01;1.08;;;0.90;;
60454;SDS011;54989;53.398;6.564;2022-09-03T11:50:50;0.73;;;0.73;;
60454;SDS011;54989;53.398;6.564;2022-09-03T11:53:24;1.48;;;0.93;;
60454;SDS011;54989;53.398;6.564;2022-09-03T11:58:42;1.95;;;1.08;;
60454;SDS011;54989;53.398;6.564;2022-09-03T12:01:13;0.93;;;0.93;;
60454;SDS011;54989;53.398;6.564;2022-09-03T12:03:56;1.73;;;1.00;;
60454;SDS011;54989;53.398;6.564;2022-09-03T12:14:16;0.88;;;0.82;;
60454;SDS011;54989;53.398;6.564;2022-09-03T12:19:36;1.00;;;1.00;;
60454;SDS011;54989;53.398;6.564;2022-09-03T12:22:21;2.20;;;0.80;;
60454;SDS011;54989;53.398;6.564;2022-09-03T12:24:54;1.40;;;1.00;;
60454;SDS011;54989;53.398;6.564;2022-09-03T12:27:37;1.77;;;1.00;;
60454;SDS011;54989;53.398;6.564;2022-09-03T12:30:17;1.60;;;1.00;;
60454;SDS011;54989;53.398;6.564;2022-09-03T12:32:48;0.85;;;0.85;;
60454;SDS011;54989;53.398;6.564;2022-09-03T12:35:18;0.90;;;0.90;;
60454;SDS011;54989;53.398;6.564;2022-09-03T12:38:07;0.90;;;0.90;;
60454;SDS011;54989;53.398;6.564;2022-09-03T12:40:44;1.27;;;1.17;;
60454;SDS011;54989;53.398;6.564;2022-09-03T12:43:31;1.23;;;0.95;;
60454;SDS011;54989;53.398;6.564;2022-09-03T12:46:04;1.23;;;0.98;;
60454;SDS011;54989;53.398;6.564;2022-09-03T12:49:00;1.45;;;1.13;;
60454;SDS011;54989;53.398;6.564;2022-09-03T12:51:50;0.80;;;0.80;;
60454;SDS011;54989;53.398;6.564;2022-09-03T12:54:31;4.10;;;1.02;;
60454;SDS011;54989;53.398;6.564;2022-09-03T12:57:00;2.60;;;1.10;;
60454;SDS011;54989;53.398;6.564;2022-09-03T12:59:30;1.30;;;0.90;;
60454;SDS011;54989;53.398;6.564;2022-09-03T13:02:02;1.98;;;0.90;;
60454;SDS011;54989;53.398;6.564;2022-09-03T13:04:37;2.10;;;1.10;;
60454;SDS011;54989;53.398;6.564;2022-09-03T13:07:10;1.67;;;1.10;;
60454;SDS011;54989;53.398;6.564;2022-09-03T13:09:48;1.45;;;1.00;;
60454;SDS011;54989;53.398;6.564;2022-09-03T13:12:20;1.05;;;0.77;;
60454;SDS011;54989;53.398;6.564;2022-09-03T13:14:51;1.75;;;0.88;;
60454;SDS011;54989;53.398;6.564;2022-09-03T13:17:29;0.82;;;0.70;;
60454;SDS011;54989;53.398;6.564;2022-09-03T13:29:36;1.23;;;1.10;;
60454;SDS011;54989;53.398;6.564;2022-09-03T13:31:47;0.90;;;0.88;;
60454;SDS011;54989;53.398;6.564;2022-09-03T13:40:04;1.10;;;1.00;;
60454;SDS011;54989;53.398;6.564;2022-09-03T13:43:10;2.50;;;1.42;;
60454;SDS011;54989;53.398;6.564;2022-09-03T13:48:55;1.55;;;1.08;;
60454;SDS011;54989;53.398;6.564;2022-09-03T13:51:49;1.13;;;1.10;;
60454;SDS011;54989;53.398;6.564;2022-09-03T13:55:06;2.35;;;1.02;;
60454;SDS011;54989;53.398;6.564;2022-09-03T13:57:58;1.75;;;1.20;;
60454;SDS011;54989;53.398;6.564;2022-09-03T14:13:35;0.90;;;0.88;;
60454;SDS011;54989;53.398;6.564;2022-09-03T14:16:43;1.55;;;0.98;;
60454;SDS011;54989;53.398;6.564;2022-09-03T14:20:11;0.98;;;0.98;;
60454;SDS011;54989;53.398;6.564;2022-09-03T14:23:07;2.72;;;1.05;;
60454;SDS011;54989;53.398;6.564;2022-09-03T14:28:19;0.90;;;0.90;;
60454;SDS011;54989;53.398;6.564;2022-09-03T14:31:12;0.98;;;0.90;;
60454;SDS011;54989;53.398;6.564;2022-09-03T14:33:52;1.23;;;1.10;;
60454;SDS011;54989;53.398;6.564;2022-09-03T14:36:38;3.28;;;1.05;;
60454;SDS011;54989;53.398;6.564;2022-09-03T14:39:35;1.40;;;1.20;;
60454;SDS011;54989;53.398;6.564;2022-09-03T14:42:26;1.50;;;1.20;;
60454;SDS011;54989;53.398;6.564;2022-09-03T14:45:21;1.38;;;1.20;;
60454;SDS011;54989;53.398;6.564;2022-09-03T14:56:58;1.67;;;1.10;;
60454;SDS011;54989;53.398;6.564;2022-09-03T15:10:42;1.98;;;0.95;;
60454;SDS011;54989;53.398;6.564;2022-09-03T15:13:28;1.08;;;0.98;;
60454;SDS011;54989;53.398;6.564;2022-09-03T15:18:58;1.55;;;1.00;;
60454;SDS011;54989;53.398;6.564;2022-09-03T15:24:41;1.15;;;1.05;;
60454;SDS011;54989;53.398;6.564;2022-09-03T15:38:00;1.33;;;1.23;;
60454;SDS011;54989;53.398;6.564;2022-09-03T15:43:24;1.42;;;1.13;;
60454;SDS011;54989;53.398;6.564;2022-09-03T16:01:56;1.60;;;1.20;;
60454;SDS011;54989;53.398;6.564;2022-09-03T16:11:02;1.40;;;1.30;;
60454;SDS011;54989;53.398;6.564;2022-09-03T16:13:39;1.40;;;1.30;;
60454;SDS011;54989;53.398;6.564;2022-09-03T16:16:28;2.40;;;1.30;;
60454;SDS011;54989;53.398;6.564;2022-09-03T16:27:32;2.22;;;1.30;;
60454;SDS011;54989;53.398;6.564;2022-09-03T16:38:17;1.30;;;1.02;;
60454;SDS011;54989;53.398;6.564;2022-09-03T16:57:40;3.72;;;1.30;;
60454;SDS011;54989;53.398;6.564;2022-09-03T17:30:57;1.38;;;1.00;;
60454;SDS011;54989;53.398;6.564;2022-09-03T17:33:39;1.40;;;0.90;;
60454;SDS011;54989;53.398;6.564;2022-09-03T17:36:12;0.90;;;0.90;;
60454;SDS011;54989;53.398;6.564;2022-09-03T17:41:51;1.52;;;1.38;;
60454;SDS011;54989;53.398;6.564;2022-09-03T17:52:49;1.50;;;1.10;;
60454;SDS011;54989;53.398;6.564;2022-09-03T17:58:00;1.48;;;1.20;;
60454;SDS011;54989;53.398;6.564;2022-09-03T18:09:25;1.60;;;1.13;;
60454;SDS011;54989;53.398;6.564;2022-09-03T18:20:52;1.75;;;1.10;;
60454;SDS011;54989;53.398;6.564;2022-09-03T18:23:59;1.00;;;1.00;;
60454;SDS011;54989;53.398;6.564;2022-09-03T18:26:57;0.80;;;0.80;;
60454;SDS011;54989;53.398;6.564;2022-09-03T18:29:53;1.65;;;0.98;;
60454;SDS011;54989;53.398;6.564;2022-09-03T18:32:41;0.95;;;0.95;;
60454;SDS011;54989;53.398;6.564;2022-09-03T18:35:29;1.27;;;1.00;;
60454;SDS011;54989;53.398;6.564;2022-09-03T18:38:26;1.30;;;1.20;;
60454;SDS011;54989;53.398;6.564;2022-09-03T18:41:18;1.90;;;1.20;;
60454;SDS011;54989;53.398;6.564;2022-09-03T18:57:38;0.80;;;0.80;;
60454;SDS011;54989;53.398;6.564;2022-09-03T19:00:35;1.30;;;1.08;;
60454;SDS011;54989;53.398;6.564;2022-09-03T19:03:35;1.00;;;0.90;;
60454;SDS011;54989;53.398;6.564;2022-09-03T19:06:47;0.80;;;0.80;;
60454;SDS011;54989;53.398;6.564;2022-09-03T19:15:56;0.95;;;0.90;;
60454;SDS011;54989;53.398;6.564;2022-09-03T19:22:12;1.23;;;1.10;;
60454;SDS011;54989;53.398;6.564;2022-09-03T19:25:15;0.93;;;0.93;;
60454;SDS011;54989;53.398;6.564;2022-09-03T19:43:28;1.25;;;1.10;;
60454;SDS011;54989;53.398;6.564;2022-09-03T19:55:42;0.82;;;0.80;;
60454;SDS011;54989;53.398;6.564;2022-09-03T19:58:47;0.98;;;0.90;;
60454;SDS011;54989;53.398;6.564;2022-09-03T20:01:38;0.90;;;0.90;;
60454;SDS011;54989;53.398;6.564;2022-09-03T20:04:37;1.20;;;1.10;;
60454;SDS011;54989;53.398;6.564;2022-09-03T20:07:28;0.90;;;0.90;;
60454;SDS011;54989;53.398;6.564;2022-09-03T20:10:16;1.15;;;1.10;;
60454;SDS011;54989;53.398;6.564;2022-09-03T20:12:57;1.00;;;0.98;;
60454;SDS011;54989;53.398;6.564;2022-09-03T20:15:34;1.67;;;1.00;;
60454;SDS011;54989;53.398;6.564;2022-09-03T20:23:35;1.00;;;0.90;;
60454;SDS011;54989;53.398;6.564;2022-09-03T20:26:07;1.58;;;0.85;;
60454;SDS011;54989;53.398;6.564;2022-09-03T20:37:42;1.52;;;0.88;;
60454;SDS011;54989;53.398;6.564;2022-09-03T20:40:25;1.02;;;0.90;;
60454;SDS011;54989;53.398;6.564;2022-09-03T20:52:07;1.40;;;1.15;;
60454;SDS011;54989;53.398;6.564;2022-09-03T20:54:44;1.10;;;0.98;;
60454;SDS011;54989;53.398;6.564;2022-09-03T21:05:21;1.10;;;1.00;;
60454;SDS011;54989;53.398;6.564;2022-09-03T21:25:02;1.02;;;1.00;;
60454;SDS011;54989;53.398;6.564;2022-09-03T21:27:54;1.40;;;1.23;;
60454;SDS011;54989;53.398;6.564;2022-09-03T21:30:25;1.27;;;1.08;;
60454;SDS011;54989;53.398;6.564;2022-09-03T21:33:01;0.75;;;0.75;;
60454;SDS011;54989;53.398;6.564;2022-09-03T21:35:33;1.42;;;1.02;;
60454;SDS011;54989;53.398;6.564;2022-09-03T21:38:05;1.10;;;1.00;;
60454;SDS011;54989;53.398;6.564;2022-09-03T21:40:42;1.30;;;1.20;;
60454;SDS011;54989;53.398;6.564;2022-09-03T21:43:32;1.13;;;1.02;;
60454;SDS011;54989;53.398;6.564;2022-09-03T21:46:14;1.20;;;1.10;;
60454;SDS011;54989;53.398;6.564;2022-09-03T21:48:58;2.78;;;1.10;;
60454;SDS011;54989;53.398;6.564;2022-09-03T21:54:06;1.30;;;1.20;;
60454;SDS011;54989;53.398;6.564;2022-09-03T21:56:48;1.30;;;1.20;;
60454;SDS011;54989;53.398;6.564;2022-09-03T22:01:56;1.50;;;1.17;;
60454;SDS011;54989;53.398;6.564;2022-09-03T22:04:32;1.20;;;1.10;;
60454;SDS011;54989;53.398;6.564;2022-09-03T22:09:49;1.60;;;1.00;;
60454;SDS011;54989;53.398;6.564;2022-09-03T22:15:07;1.10;;;1.10;;
60454;SDS011;54989;53.398;6.564;2022-09-03T22:17:41;1.95;;;1.00;;
60454;SDS011;54989;53.398;6.564;2022-09-03T22:20:22;1.30;;;1.20;;
60454;SDS011;54989;53.398;6.564;2022-09-03T22:22:54;1.30;;;1.20;;
60454;SDS011;54989;53.398;6.564;2022-09-03T22:30:54;1.97;;;1.20;;
60454;SDS011;54989;53.398;6.564;2022-09-03T22:33:31;1.08;;;1.02;;
60454;SDS011;54989;53.398;6.564;2022-09-03T22:38:59;3.15;;;1.27;;
60454;SDS011;54989;53.398;6.564;2022-09-03T22:47:25;1.83;;;1.33;;
60454;SDS011;54989;53.398;6.564;2022-09-03T22:50:18;1.10;;;1.10;;
60454;SDS011;54989;53.398;6.564;2022-09-03T22:55:36;1.55;;;1.00;;
60454;SDS011;54989;53.398;6.564;2022-09-03T22:58:15;1.92;;;1.05;;
60454;SDS011;54989;53.398;6.564;2022-09-03T23:00:52;1.75;;;1.20;;
60454;SDS011;54989;53.398;6.564;2022-09-03T23:03:28;1.33;;;1.10;;
60454;SDS011;54989;53.398;6.564;2022-09-03T23:06:04;1.00;;;1.00;;
60454;SDS011;54989;53.398;6.564;2022-09-03T23:08:36;1.60;;;1.13;;
60454;SDS011;54989;53.398;6.564;2022-09-03T23:11:17;1.40;;;1.30;;
60454;SDS011;54989;53.398;6.564;2022-09-03T23:14:05;1.13;;;1.02;;
60454;SDS011;54989;53.398;6.564;2022-09-03T23:16:39;1.20;;;1.20;;
60454;SDS011;54989;53.398;6.564;2022-09-03T23:19:09;1.20;;;1.20;;
60454;SDS011;54989;53.398;6.564;2022-09-03T23:22:05;1.50;;;1.40;;
60454;SDS011;54989;53.398;6.564;2022-09-03T23:27:36;1.40;;;1.30;;
60454;SDS011;54989;53.398;6.564;2022-09-03T23:30:09;1.20;;;1.10;;
60454;SDS011;54989;53.398;6.564;2022-09-03T23:32:36;1.63;;;1.38;;
60454;SDS011;54989;53.398;6.564;2022-09-03T23:35:11;1.13;;;1.05;;
60454;SDS011;54989;53.398;6.564;2022-09-03T23:57:01;1.35;;;1.25;;